sensor_id;sensor_type;location;lat;lon;timestamp;P1;durP1;ratioP1;P2;durP2;ratioP2
2313;SDS011;42279;51.388;7.000;2023-03-20T00:02:16;21.63;;;15.20;;
2313;SDS011;42279;51.388;7.000;2023-03-20T00:04:42;21.77;;;16.07;;
2313;SDS011;42279;51.388;7.000;2023-03-20T00:07:08;26.73;;;16.83;;
2313;SDS011;42279;51.388;7.000;2023-03-20T00:09:37;22.93;;;16.63;;
2313;SDS011;42279;51.388;7.000;2023-03-20T00:12:03;18.83;;;15.47;;
2313;SDS011;42279;51.388;7.000;2023-03-20T00:14:33;14.40;;;12.37;;
2313;SDS011;42279;51.388;7.000;2023-03-20T00:17:00;12.97;;;10.23;;
2313;SDS011;42279;51.388;7.000;2023-03-20T00:19:26;14.40;;;11.10;;
2313;SDS011;42279;51.388;7.000;2023-03-20T00:21:56;11.10;;;9.23;;
2313;SDS011;42279;51.388;7.000;2023-03-20T00:24:23;9.83;;;8.83;;
2313;SDS011;42279;51.388;7.000;2023-03-20T00:26:49;13.20;;;9.57;;
2313;SDS011;42279;51.388;7.000;2023-03-20T00:31:48;9.87;;;8.73;;
2313;SDS011;42279;51.388;7.000;2023-03-20T00:34:15;10.77;;;9.33;;
2313;SDS011;42279;51.388;7.000;2023-03-20T00:36:41;9.77;;;8.83;;
2313;SDS011;42279;51.388;7.000;2023-03-20T00:39:07;13.60;;;8.83;;
2313;SDS011;42279;51.388;7.000;2023-03-20T00:46:33;10.03;;;8.90;;
2313;SDS011;42279;51.388;7.000;2023-03-20T00:49:01;12.90;;;9.20;;
2313;SDS011;42279;51.388;7.000;2023-03-20T00:51:27;11.10;;;9.17;;
2313;SDS011;42279;51.388;7.000;2023-03-20T00:53:53;9.20;;;7.97;;
2313;SDS011;42279;51.388;7.000;2023-03-20T00:56:32;9.90;;;8.70;;
2313;SDS011;42279;51.388;7.000;2023-03-20T00:58:59;9.30;;;8.40;;
2313;SDS011;42279;51.388;7.000;2023-03-20T01:01:27;9.70;;;8.77;;
2313;SDS011;42279;51.388;7.000;2023-03-20T01:03:59;11.97;;;10.33;;
2313;SDS011;42279;51.388;7.000;2023-03-20T01:06:25;9.10;;;8.20;;
2313;SDS011;42279;51.388;7.000;2023-03-20T01:08:53;11.83;;;9.47;;
2313;SDS011;42279;51.388;7.000;2023-03-20T01:11:22;11.00;;;9.47;;
2313;SDS011;42279;51.388;7.000;2023-03-20T01:13:51;9.03;;;8.13;;
2313;SDS011;42279;51.388;7.000;2023-03-20T01:16:21;9.60;;;8.10;;
2313;SDS011;42279;51.388;7.000;2023-03-20T01:18:48;10.47;;;8.00;;
2313;SDS011;42279;51.388;7.000;2023-03-20T01:21:17;12.13;;;9.00;;
2313;SDS011;42279;51.388;7.000;2023-03-20T01:34:08;9.27;;;8.47;;
2313;SDS011;42279;51.388;7.000;2023-03-20T01:36:34;11.30;;;7.97;;
2313;SDS011;42279;51.388;7.000;2023-03-20T01:39:01;10.67;;;8.57;;
2313;SDS011;42279;51.388;7.000;2023-03-20T01:41:33;10.30;;;8.53;;
2313;SDS011;42279;51.388;7.000;2023-03-20T01:44:08;9.73;;;8.80;;
2313;SDS011;42279;51.388;7.000;2023-03-20T01:46:41;13.30;;;10.30;;
2313;SDS011;42279;51.388;7.000;2023-03-20T01:51:46;8.93;;;8.07;;
2313;SDS011;42279;51.388;7.000;2023-03-20T01:56:47;10.40;;;8.67;;
2313;SDS011;42279;51.388;7.000;2023-03-20T02:01:59;11.07;;;8.90;;
2313;SDS011;42279;51.388;7.000;2023-03-20T02:04:28;9.60;;;8.60;;
2313;SDS011;42279;51.388;7.000;2023-03-20T02:06:56;13.17;;;10.03;;
2313;SDS011;42279;51.388;7.000;2023-03-20T02:09:22;11.10;;;9.90;;
2313;SDS011;42279;51.388;7.000;2023-03-20T02:11:48;11.70;;;8.43;;
2313;SDS011;42279;51.388;7.000;2023-03-20T02:14:14;12.90;;;9.57;;
2313;SDS011;42279;51.388;7.000;2023-03-20T02:16:43;9.93;;;8.90;;
2313;SDS011;42279;51.388;7.000;2023-03-20T02:27:07;10.80;;;9.27;;
2313;SDS011;42279;51.388;7.000;2023-03-20T02:29:49;11.23;;;8.73;;
2313;SDS011;42279;51.388;7.000;2023-03-20T02:40:21;13.40;;;9.73;;
2313;SDS011;42279;51.388;7.000;2023-03-20T02:45:26;13.40;;;8.77;;
2313;SDS011;42279;51.388;7.000;2023-03-20T02:50:32;7.43;;;6.83;;
2313;SDS011;42279;51.388;7.000;2023-03-20T02:53:17;8.43;;;7.50;;
2313;SDS011;42279;51.388;7.000;2023-03-20T02:55:52;12.30;;;8.90;;
2313;SDS011;42279;51.388;7.000;2023-03-20T02:58:32;12.40;;;8.13;;
2313;SDS011;42279;51.388;7.000;2023-03-20T03:01:08;8.00;;;7.13;;
2313;SDS011;42279;51.388;7.000;2023-03-20T03:03:42;10.93;;;8.33;;
2313;SDS011;42279;51.388;7.000;2023-03-20T03:06:10;10.20;;;7.80;;
2313;SDS011;42279;51.388;7.000;2023-03-20T03:08:39;9.13;;;7.67;;
2313;SDS011;42279;51.388;7.000;2023-03-20T03:11:08;10.03;;;8.97;;
2313;SDS011;42279;51.388;7.000;2023-03-20T03:13:35;8.73;;;7.77;;
2313;SDS011;42279;51.388;7.000;2023-03-20T03:16:04;8.47;;;7.53;;
2313;SDS011;42279;51.388;7.000;2023-03-20T03:18:31;10.87;;;8.47;;
2313;SDS011;42279;51.388;7.000;2023-03-20T03:20:58;9.67;;;7.70;;
2313;SDS011;42279;51.388;7.000;2023-03-20T03:23:33;9.90;;;8.07;;
2313;SDS011;42279;51.388;7.000;2023-03-20T03:26:01;11.50;;;9.10;;
2313;SDS011;42279;51.388;7.000;2023-03-20T03:28:34;13.00;;;9.30;;
2313;SDS011;42279;51.388;7.000;2023-03-20T03:31:07;10.83;;;9.33;;
2313;SDS011;42279;51.388;7.000;2023-03-20T03:33:35;13.07;;;8.73;;
2313;SDS011;42279;51.388;7.000;2023-03-20T03:36:13;10.50;;;8.20;;
2313;SDS011;42279;51.388;7.000;2023-03-20T03:38:56;13.97;;;9.93;;
2313;SDS011;42279;51.388;7.000;2023-03-20T03:46:26;10.60;;;9.50;;
2313;SDS011;42279;51.388;7.000;2023-03-20T03:48:55;13.07;;;9.27;;
2313;SDS011;42279;51.388;7.000;2023-03-20T03:51:23;11.80;;;9.77;;
2313;SDS011;42279;51.388;7.000;2023-03-20T03:53:53;11.40;;;9.40;;
2313;SDS011;42279;51.388;7.000;2023-03-20T03:56:20;12.43;;;9.20;;
2313;SDS011;42279;51.388;7.000;2023-03-20T03:58:48;14.00;;;9.60;;
2313;SDS011;42279;51.388;7.000;2023-03-20T04:01:16;14.60;;;10.70;;
2313;SDS011;42279;51.388;7.000;2023-03-20T04:03:45;12.13;;;8.53;;
2313;SDS011;42279;51.388;7.000;2023-03-20T04:06:13;13.40;;;9.03;;
2313;SDS011;42279;51.388;7.000;2023-03-20T04:08:40;11.57;;;8.50;;
2313;SDS011;42279;51.388;7.000;2023-03-20T04:11:07;8.93;;;8.00;;
2313;SDS011;42279;51.388;7.000;2023-03-20T04:13:33;13.87;;;8.83;;
2313;SDS011;42279;51.388;7.000;2023-03-20T04:15:59;11.97;;;9.77;;
2313;SDS011;42279;51.388;7.000;2023-03-20T04:18:25;11.73;;;10.27;;
2313;SDS011;42279;51.388;7.000;2023-03-20T04:20:51;12.60;;;9.50;;
2313;SDS011;42279;51.388;7.000;2023-03-20T04:23:18;13.87;;;9.80;;
2313;SDS011;42279;51.388;7.000;2023-03-20T04:25:44;13.60;;;9.90;;
2313;SDS011;42279;51.388;7.000;2023-03-20T04:28:10;14.80;;;10.50;;
2313;SDS011;42279;51.388;7.000;2023-03-20T04:30:40;16.60;;;10.80;;
2313;SDS011;42279;51.388;7.000;2023-03-20T04:33:08;14.90;;;10.50;;
2313;SDS011;42279;51.388;7.000;2023-03-20T04:35:35;13.47;;;10.03;;
2313;SDS011;42279;51.388;7.000;2023-03-20T04:38:01;15.60;;;12.13;;
2313;SDS011;42279;51.388;7.000;2023-03-20T04:40:30;19.97;;;11.90;;
2313;SDS011;42279;51.388;7.000;2023-03-20T04:42:56;14.33;;;10.70;;
2313;SDS011;42279;51.388;7.000;2023-03-20T04:45:22;15.20;;;11.10;;
2313;SDS011;42279;51.388;7.000;2023-03-20T04:47:48;16.80;;;12.53;;
2313;SDS011;42279;51.388;7.000;2023-03-20T04:50:14;18.50;;;12.00;;
2313;SDS011;42279;51.388;7.000;2023-03-20T04:52:40;14.00;;;9.50;;
2313;SDS011;42279;51.388;7.000;2023-03-20T04:55:06;15.23;;;9.37;;
2313;SDS011;42279;51.388;7.000;2023-03-20T04:57:32;13.90;;;10.23;;
2313;SDS011;42279;51.388;7.000;2023-03-20T04:59:58;16.23;;;11.30;;
2313;SDS011;42279;51.388;7.000;2023-03-20T05:02:24;14.67;;;10.40;;
2313;SDS011;42279;51.388;7.000;2023-03-20T05:04:51;18.50;;;11.80;;
2313;SDS011;42279;51.388;7.000;2023-03-20T05:07:17;18.83;;;14.13;;
2313;SDS011;42279;51.388;7.000;2023-03-20T05:09:43;19.27;;;10.80;;
2313;SDS011;42279;51.388;7.000;2023-03-20T05:12:09;15.70;;;10.93;;
2313;SDS011;42279;51.388;7.000;2023-03-20T05:14:35;17.20;;;12.10;;
2313;SDS011;42279;51.388;7.000;2023-03-20T05:17:01;14.90;;;10.10;;
2313;SDS011;42279;51.388;7.000;2023-03-20T05:19:27;17.40;;;10.40;;
2313;SDS011;42279;51.388;7.000;2023-03-20T05:21:53;15.80;;;10.63;;
2313;SDS011;42279;51.388;7.000;2023-03-20T05:24:19;20.80;;;12.13;;
2313;SDS011;42279;51.388;7.000;2023-03-20T05:26:45;19.30;;;12.90;;
2313;SDS011;42279;51.388;7.000;2023-03-20T05:29:11;22.10;;;12.70;;
2313;SDS011;42279;51.388;7.000;2023-03-20T05:31:38;18.27;;;12.20;;
2313;SDS011;42279;51.388;7.000;2023-03-20T05:34:04;19.20;;;10.50;;
2313;SDS011;42279;51.388;7.000;2023-03-20T05:36:31;15.33;;;10.17;;
2313;SDS011;42279;51.388;7.000;2023-03-20T05:38:57;14.27;;;9.87;;
2313;SDS011;42279;51.388;7.000;2023-03-20T05:41:23;16.93;;;9.07;;
2313;SDS011;42279;51.388;7.000;2023-03-20T05:43:49;14.27;;;9.90;;
2313;SDS011;42279;51.388;7.000;2023-03-20T05:46:15;19.30;;;12.47;;
2313;SDS011;42279;51.388;7.000;2023-03-20T05:48:41;10.17;;;7.70;;
2313;SDS011;42279;51.388;7.000;2023-03-20T05:51:09;14.60;;;9.70;;
2313;SDS011;42279;51.388;7.000;2023-03-20T05:53:36;15.53;;;9.60;;
2313;SDS011;42279;51.388;7.000;2023-03-20T05:56:02;16.30;;;10.20;;
2313;SDS011;42279;51.388;7.000;2023-03-20T05:58:28;13.87;;;9.23;;
2313;SDS011;42279;51.388;7.000;2023-03-20T06:00:55;15.10;;;10.10;;
2313;SDS011;42279;51.388;7.000;2023-03-20T06:03:21;12.10;;;8.47;;
2313;SDS011;42279;51.388;7.000;2023-03-20T06:05:47;19.73;;;9.83;;
2313;SDS011;42279;51.388;7.000;2023-03-20T06:08:13;13.90;;;9.50;;
2313;SDS011;42279;51.388;7.000;2023-03-20T06:10:40;13.93;;;8.63;;
2313;SDS011;42279;51.388;7.000;2023-03-20T06:13:06;15.70;;;9.67;;
2313;SDS011;42279;51.388;7.000;2023-03-20T06:15:32;12.37;;;8.57;;
2313;SDS011;42279;51.388;7.000;2023-03-20T06:17:58;15.37;;;9.40;;
2313;SDS011;42279;51.388;7.000;2023-03-20T06:20:24;14.30;;;8.60;;
2313;SDS011;42279;51.388;7.000;2023-03-20T06:22:50;13.90;;;8.53;;
2313;SDS011;42279;51.388;7.000;2023-03-20T06:25:17;14.03;;;9.00;;
2313;SDS011;42279;51.388;7.000;2023-03-20T06:27:45;10.13;;;7.40;;
2313;SDS011;42279;51.388;7.000;2023-03-20T06:30:11;11.03;;;8.60;;
2313;SDS011;42279;51.388;7.000;2023-03-20T06:32:37;12.87;;;7.93;;
2313;SDS011;42279;51.388;7.000;2023-03-20T06:35:03;14.50;;;9.83;;
2313;SDS011;42279;51.388;7.000;2023-03-20T06:37:30;10.10;;;8.20;;
2313;SDS011;42279;51.388;7.000;2023-03-20T06:39:56;11.20;;;8.77;;
2313;SDS011;42279;51.388;7.000;2023-03-20T06:42:22;10.63;;;8.37;;
2313;SDS011;42279;51.388;7.000;2023-03-20T06:44:48;11.47;;;8.60;;
2313;SDS011;42279;51.388;7.000;2023-03-20T06:47:15;11.70;;;7.97;;
2313;SDS011;42279;51.388;7.000;2023-03-20T06:49:41;10.00;;;7.63;;
2313;SDS011;42279;51.388;7.000;2023-03-20T06:52:15;8.97;;;8.07;;
2313;SDS011;42279;51.388;7.000;2023-03-20T06:54:41;11.50;;;8.80;;
2313;SDS011;42279;51.388;7.000;2023-03-20T06:57:07;13.27;;;8.47;;
2313;SDS011;42279;51.388;7.000;2023-03-20T06:59:33;10.50;;;7.90;;
2313;SDS011;42279;51.388;7.000;2023-03-20T07:02:00;9.97;;;6.87;;
2313;SDS011;42279;51.388;7.000;2023-03-20T07:04:26;16.17;;;8.77;;
2313;SDS011;42279;51.388;7.000;2023-03-20T07:06:52;12.07;;;8.47;;
2313;SDS011;42279;51.388;7.000;2023-03-20T07:09:18;14.40;;;8.53;;
2313;SDS011;42279;51.388;7.000;2023-03-20T07:11:47;11.07;;;8.23;;
2313;SDS011;42279;51.388;7.000;2023-03-20T07:14:14;10.33;;;7.60;;
2313;SDS011;42279;51.388;7.000;2023-03-20T07:16:40;11.67;;;8.80;;
2313;SDS011;42279;51.388;7.000;2023-03-20T07:19:06;12.53;;;8.30;;
2313;SDS011;42279;51.388;7.000;2023-03-20T07:21:32;10.77;;;8.20;;
2313;SDS011;42279;51.388;7.000;2023-03-20T07:23:59;12.40;;;8.00;;
2313;SDS011;42279;51.388;7.000;2023-03-20T07:26:28;10.53;;;7.77;;
2313;SDS011;42279;51.388;7.000;2023-03-20T07:28:54;9.30;;;7.13;;
2313;SDS011;42279;51.388;7.000;2023-03-20T07:31:21;14.20;;;6.93;;
2313;SDS011;42279;51.388;7.000;2023-03-20T07:33:47;9.50;;;6.73;;
2313;SDS011;42279;51.388;7.000;2023-03-20T07:36:13;5.60;;;5.13;;
2313;SDS011;42279;51.388;7.000;2023-03-20T07:38:40;5.60;;;5.10;;
2313;SDS011;42279;51.388;7.000;2023-03-20T07:41:06;9.43;;;5.57;;
2313;SDS011;42279;51.388;7.000;2023-03-20T07:43:32;6.03;;;5.43;;
2313;SDS011;42279;51.388;7.000;2023-03-20T07:46:02;6.50;;;4.77;;
2313;SDS011;42279;51.388;7.000;2023-03-20T07:48:28;7.03;;;6.10;;
2313;SDS011;42279;51.388;7.000;2023-03-20T07:50:54;4.47;;;4.10;;
2313;SDS011;42279;51.388;7.000;2023-03-20T07:53:20;9.80;;;6.20;;
2313;SDS011;42279;51.388;7.000;2023-03-20T07:55:46;6.87;;;5.77;;
2313;SDS011;42279;51.388;7.000;2023-03-20T07:58:12;8.13;;;6.50;;
2313;SDS011;42279;51.388;7.000;2023-03-20T08:00:38;9.10;;;6.30;;
2313;SDS011;42279;51.388;7.000;2023-03-20T08:03:04;6.80;;;6.20;;
2313;SDS011;42279;51.388;7.000;2023-03-20T08:05:30;8.57;;;7.03;;
2313;SDS011;42279;51.388;7.000;2023-03-20T08:07:56;14.27;;;7.97;;
2313;SDS011;42279;51.388;7.000;2023-03-20T08:10:22;8.80;;;7.40;;
2313;SDS011;42279;51.388;7.000;2023-03-20T08:12:48;8.23;;;6.67;;
2313;SDS011;42279;51.388;7.000;2023-03-20T08:15:14;8.80;;;7.17;;
2313;SDS011;42279;51.388;7.000;2023-03-20T08:17:41;8.27;;;7.43;;
2313;SDS011;42279;51.388;7.000;2023-03-20T08:20:08;10.13;;;5.63;;
2313;SDS011;42279;51.388;7.000;2023-03-20T08:22:37;11.83;;;7.97;;
2313;SDS011;42279;51.388;7.000;2023-03-20T08:25:03;8.20;;;7.43;;
2313;SDS011;42279;51.388;7.000;2023-03-20T08:27:30;8.33;;;7.07;;
2313;SDS011;42279;51.388;7.000;2023-03-20T08:29:56;10.87;;;8.20;;
2313;SDS011;42279;51.388;7.000;2023-03-20T08:32:22;8.87;;;7.37;;
2313;SDS011;42279;51.388;7.000;2023-03-20T08:34:48;9.33;;;7.03;;
2313;SDS011;42279;51.388;7.000;2023-03-20T08:37:14;7.63;;;6.40;;
2313;SDS011;42279;51.388;7.000;2023-03-20T08:39:40;6.60;;;5.17;;
2313;SDS011;42279;51.388;7.000;2023-03-20T08:42:06;9.20;;;8.40;;
2313;SDS011;42279;51.388;7.000;2023-03-20T08:44:32;11.53;;;7.97;;
2313;SDS011;42279;51.388;7.000;2023-03-20T08:46:57;8.40;;;6.20;;
2313;SDS011;42279;51.388;7.000;2023-03-20T08:49:24;8.33;;;6.23;;
2313;SDS011;42279;51.388;7.000;2023-03-20T08:51:50;10.23;;;6.80;;
2313;SDS011;42279;51.388;7.000;2023-03-20T08:54:16;7.07;;;5.70;;
2313;SDS011;42279;51.388;7.000;2023-03-20T08:56:43;9.23;;;5.77;;
2313;SDS011;42279;51.388;7.000;2023-03-20T08:59:09;10.63;;;6.00;;
2313;SDS011;42279;51.388;7.000;2023-03-20T09:01:35;7.90;;;5.63;;
2313;SDS011;42279;51.388;7.000;2023-03-20T09:04:01;6.27;;;5.60;;
2313;SDS011;42279;51.388;7.000;2023-03-20T09:06:27;8.50;;;6.20;;
2313;SDS011;42279;51.388;7.000;2023-03-20T09:08:54;5.43;;;4.80;;
2313;SDS011;42279;51.388;7.000;2023-03-20T09:11:23;11.77;;;7.13;;
2313;SDS011;42279;51.388;7.000;2023-03-20T09:13:49;8.37;;;5.87;;
2313;SDS011;42279;51.388;7.000;2023-03-20T09:16:15;10.27;;;6.07;;
2313;SDS011;42279;51.388;7.000;2023-03-20T09:18:41;5.93;;;5.30;;
2313;SDS011;42279;51.388;7.000;2023-03-20T09:21:07;7.70;;;6.00;;
2313;SDS011;42279;51.388;7.000;2023-03-20T09:23:36;4.77;;;4.37;;
2313;SDS011;42279;51.388;7.000;2023-03-20T09:26:02;6.90;;;6.20;;
2313;SDS011;42279;51.388;7.000;2023-03-20T09:28:28;7.33;;;5.20;;
2313;SDS011;42279;51.388;7.000;2023-03-20T09:30:55;6.40;;;5.80;;
2313;SDS011;42279;51.388;7.000;2023-03-20T09:33:21;6.90;;;6.13;;
2313;SDS011;42279;51.388;7.000;2023-03-20T09:35:47;6.87;;;6.27;;
2313;SDS011;42279;51.388;7.000;2023-03-20T09:38:13;4.43;;;4.20;;
2313;SDS011;42279;51.388;7.000;2023-03-20T09:43:21;6.20;;;5.60;;
2313;SDS011;42279;51.388;7.000;2023-03-20T09:45:58;7.80;;;4.17;;
2313;SDS011;42279;51.388;7.000;2023-03-20T09:48:39;5.43;;;4.93;;
2313;SDS011;42279;51.388;7.000;2023-03-20T09:53:42;4.80;;;2.97;;
2313;SDS011;42279;51.388;7.000;2023-03-20T09:56:13;3.30;;;3.10;;
2313;SDS011;42279;51.388;7.000;2023-03-20T09:58:39;8.67;;;3.73;;
2313;SDS011;42279;51.388;7.000;2023-03-20T10:01:06;4.70;;;3.17;;
2313;SDS011;42279;51.388;7.000;2023-03-20T10:03:58;2.50;;;2.40;;
2313;SDS011;42279;51.388;7.000;2023-03-20T10:06:22;5.67;;;2.83;;
2313;SDS011;42279;51.388;7.000;2023-03-20T10:08:50;4.10;;;2.20;;
2313;SDS011;42279;51.388;7.000;2023-03-20T10:11:37;3.53;;;2.47;;
2313;SDS011;42279;51.388;7.000;2023-03-20T10:19:22;2.40;;;2.20;;
2313;SDS011;42279;51.388;7.000;2023-03-20T10:21:52;2.23;;;2.20;;
2313;SDS011;42279;51.388;7.000;2023-03-20T10:26:49;2.20;;;2.10;;
2313;SDS011;42279;51.388;7.000;2023-03-20T10:31:44;2.70;;;2.50;;
2313;SDS011;42279;51.388;7.000;2023-03-20T10:41:37;3.33;;;3.13;;
2313;SDS011;42279;51.388;7.000;2023-03-20T10:44:04;3.53;;;2.30;;
2313;SDS011;42279;51.388;7.000;2023-03-20T10:46:33;3.10;;;1.80;;
2313;SDS011;42279;51.388;7.000;2023-03-20T10:49:19;3.17;;;2.00;;
2313;SDS011;42279;51.388;7.000;2023-03-20T10:51:57;4.87;;;2.67;;
2313;SDS011;42279;51.388;7.000;2023-03-20T10:54:29;8.57;;;3.13;;
2313;SDS011;42279;51.388;7.000;2023-03-20T10:56:57;2.00;;;1.90;;
2313;SDS011;42279;51.388;7.000;2023-03-20T10:59:25;6.13;;;2.40;;
2313;SDS011;42279;51.388;7.000;2023-03-20T11:01:51;10.90;;;3.47;;
2313;SDS011;42279;51.388;7.000;2023-03-20T11:04:17;3.50;;;3.33;;
2313;SDS011;42279;51.388;7.000;2023-03-20T11:09:19;2.30;;;2.20;;
2313;SDS011;42279;51.388;7.000;2023-03-20T11:11:46;1.60;;;1.37;;
2313;SDS011;42279;51.388;7.000;2023-03-20T11:14:17;2.90;;;2.70;;
2313;SDS011;42279;51.388;7.000;2023-03-20T11:16:45;3.03;;;2.77;;
2313;SDS011;42279;51.388;7.000;2023-03-20T11:19:15;3.27;;;3.07;;
2313;SDS011;42279;51.388;7.000;2023-03-20T11:21:46;3.23;;;2.70;;
2313;SDS011;42279;51.388;7.000;2023-03-20T11:26:47;2.40;;;2.20;;
2313;SDS011;42279;51.388;7.000;2023-03-20T11:29:25;4.67;;;3.23;;
2313;SDS011;42279;51.388;7.000;2023-03-20T11:31:51;1.60;;;1.60;;
2313;SDS011;42279;51.388;7.000;2023-03-20T11:37:04;1.90;;;1.80;;
2313;SDS011;42279;51.388;7.000;2023-03-20T11:39:31;1.70;;;1.70;;
2313;SDS011;42279;51.388;7.000;2023-03-20T11:42:00;2.40;;;2.30;;
2313;SDS011;42279;51.388;7.000;2023-03-20T11:44:35;2.13;;;2.00;;
2313;SDS011;42279;51.388;7.000;2023-03-20T11:49:54;2.10;;;1.70;;
2313;SDS011;42279;51.388;7.000;2023-03-20T11:52:21;3.90;;;2.30;;
2313;SDS011;42279;51.388;7.000;2023-03-20T11:54:50;2.43;;;2.23;;
2313;SDS011;42279;51.388;7.000;2023-03-20T11:57:36;3.50;;;2.70;;
2313;SDS011;42279;51.388;7.000;2023-03-20T12:00:06;3.20;;;2.90;;
2313;SDS011;42279;51.388;7.000;2023-03-20T12:02:41;5.17;;;3.50;;
2313;SDS011;42279;51.388;7.000;2023-03-20T12:05:50;4.63;;;4.30;;
2313;SDS011;42279;51.388;7.000;2023-03-20T12:08:08;6.27;;;3.10;;
2313;SDS011;42279;51.388;7.000;2023-03-20T12:10:39;7.33;;;3.80;;
2313;SDS011;42279;51.388;7.000;2023-03-20T12:13:11;2.70;;;2.50;;
2313;SDS011;42279;51.388;7.000;2023-03-20T12:15:43;5.73;;;2.73;;
2313;SDS011;42279;51.388;7.000;2023-03-20T12:25:43;2.10;;;2.00;;
2313;SDS011;42279;51.388;7.000;2023-03-20T12:33:57;1.80;;;1.33;;
2313;SDS011;42279;51.388;7.000;2023-03-20T12:36:16;2.20;;;2.20;;
2313;SDS011;42279;51.388;7.000;2023-03-20T12:38:43;2.37;;;2.27;;
2313;SDS011;42279;51.388;7.000;2023-03-20T12:41:28;2.23;;;2.23;;
2313;SDS011;42279;51.388;7.000;2023-03-20T12:46:47;2.87;;;2.23;;
2313;SDS011;42279;51.388;7.000;2023-03-20T12:54:24;2.03;;;1.80;;
2313;SDS011;42279;51.388;7.000;2023-03-20T12:56:57;3.23;;;1.30;;
2313;SDS011;42279;51.388;7.000;2023-03-20T12:59:28;2.80;;;2.70;;
2313;SDS011;42279;51.388;7.000;2023-03-20T13:02:02;2.63;;;2.00;;
2313;SDS011;42279;51.388;7.000;2023-03-20T13:04:56;5.67;;;4.97;;
2313;SDS011;42279;51.388;7.000;2023-03-20T13:07:42;2.73;;;1.87;;
2313;SDS011;42279;51.388;7.000;2023-03-20T13:15:21;2.40;;;2.30;;
2313;SDS011;42279;51.388;7.000;2023-03-20T13:17:54;2.60;;;2.50;;
2313;SDS011;42279;51.388;7.000;2023-03-20T13:25:27;4.57;;;3.23;;
2313;SDS011;42279;51.388;7.000;2023-03-20T13:28:00;3.20;;;2.97;;
2313;SDS011;42279;51.388;7.000;2023-03-20T13:30:33;3.93;;;2.63;;
2313;SDS011;42279;51.388;7.000;2023-03-20T13:33:08;3.20;;;2.80;;
2313;SDS011;42279;51.388;7.000;2023-03-20T13:38:23;7.70;;;3.37;;
2313;SDS011;42279;51.388;7.000;2023-03-20T13:40:54;3.30;;;3.10;;
2313;SDS011;42279;51.388;7.000;2023-03-20T13:43:36;2.47;;;2.30;;
2313;SDS011;42279;51.388;7.000;2023-03-20T13:48:48;4.70;;;2.80;;
2313;SDS011;42279;51.388;7.000;2023-03-20T13:58:51;3.77;;;3.33;;
2313;SDS011;42279;51.388;7.000;2023-03-20T14:04:03;2.17;;;2.07;;
2313;SDS011;42279;51.388;7.000;2023-03-20T14:08:59;2.80;;;2.70;;
2313;SDS011;42279;51.388;7.000;2023-03-20T14:11:33;2.53;;;2.47;;
2313;SDS011;42279;51.388;7.000;2023-03-20T14:14:22;6.17;;;2.87;;
2313;SDS011;42279;51.388;7.000;2023-03-20T14:19:36;3.70;;;1.93;;
2313;SDS011;42279;51.388;7.000;2023-03-20T14:22:03;2.93;;;2.70;;
2313;SDS011;42279;51.388;7.000;2023-03-20T14:24:31;4.80;;;2.27;;
2313;SDS011;42279;51.388;7.000;2023-03-20T14:27:00;3.97;;;3.07;;
2313;SDS011;42279;51.388;7.000;2023-03-20T14:37:27;3.30;;;2.30;;
2313;SDS011;42279;51.388;7.000;2023-03-20T14:40:04;5.60;;;2.60;;
2313;SDS011;42279;51.388;7.000;2023-03-20T14:53:15;6.63;;;3.03;;
2313;SDS011;42279;51.388;7.000;2023-03-20T14:58:34;4.10;;;3.40;;
2313;SDS011;42279;51.388;7.000;2023-03-20T15:01:01;5.90;;;2.73;;
2313;SDS011;42279;51.388;7.000;2023-03-20T15:03:28;3.83;;;2.63;;
2313;SDS011;42279;51.388;7.000;2023-03-20T15:05:55;4.70;;;2.70;;
2313;SDS011;42279;51.388;7.000;2023-03-20T15:08:24;6.27;;;3.40;;
2313;SDS011;42279;51.388;7.000;2023-03-20T15:10:52;9.57;;;3.60;;
2313;SDS011;42279;51.388;7.000;2023-03-20T15:13:19;3.70;;;3.30;;
2313;SDS011;42279;51.388;7.000;2023-03-20T15:15:55;3.70;;;3.40;;
2313;SDS011;42279;51.388;7.000;2023-03-20T15:18:22;4.30;;;2.67;;
2313;SDS011;42279;51.388;7.000;2023-03-20T15:20:49;3.53;;;3.33;;
2313;SDS011;42279;51.388;7.000;2023-03-20T15:23:15;3.37;;;2.83;;
2313;SDS011;42279;51.388;7.000;2023-03-20T15:25:42;3.27;;;2.47;;
2313;SDS011;42279;51.388;7.000;2023-03-20T15:28:26;4.67;;;3.20;;
2313;SDS011;42279;51.388;7.000;2023-03-20T15:30:55;3.67;;;3.30;;
2313;SDS011;42279;51.388;7.000;2023-03-20T15:33:24;9.47;;;3.67;;
2313;SDS011;42279;51.388;7.000;2023-03-20T15:35:51;3.33;;;2.93;;
2313;SDS011;42279;51.388;7.000;2023-03-20T15:38:17;5.60;;;3.60;;
2313;SDS011;42279;51.388;7.000;2023-03-20T15:40:44;3.90;;;3.47;;
2313;SDS011;42279;51.388;7.000;2023-03-20T15:43:16;3.63;;;3.03;;
2313;SDS011;42279;51.388;7.000;2023-03-20T15:45:43;4.20;;;3.97;;
2313;SDS011;42279;51.388;7.000;2023-03-20T15:48:13;6.60;;;4.00;;
2313;SDS011;42279;51.388;7.000;2023-03-20T15:50:40;3.90;;;3.43;;
2313;SDS011;42279;51.388;7.000;2023-03-20T15:53:07;4.13;;;3.07;;
2313;SDS011;42279;51.388;7.000;2023-03-20T15:55:35;7.03;;;3.73;;
2313;SDS011;42279;51.388;7.000;2023-03-20T15:58:01;3.47;;;3.17;;
2313;SDS011;42279;51.388;7.000;2023-03-20T16:00:29;4.00;;;3.80;;
2313;SDS011;42279;51.388;7.000;2023-03-20T16:02:55;4.93;;;3.80;;
2313;SDS011;42279;51.388;7.000;2023-03-20T16:05:24;8.90;;;3.60;;
2313;SDS011;42279;51.388;7.000;2023-03-20T16:07:50;4.50;;;3.70;;
2313;SDS011;42279;51.388;7.000;2023-03-20T16:12:46;3.97;;;3.30;;
2313;SDS011;42279;51.388;7.000;2023-03-20T16:15:16;4.57;;;4.03;;
2313;SDS011;42279;51.388;7.000;2023-03-20T16:17:42;7.70;;;3.80;;
2313;SDS011;42279;51.388;7.000;2023-03-20T16:20:12;3.73;;;3.43;;
2313;SDS011;42279;51.388;7.000;2023-03-20T16:22:38;6.53;;;3.17;;
2313;SDS011;42279;51.388;7.000;2023-03-20T16:25:12;6.00;;;3.47;;
2313;SDS011;42279;51.388;7.000;2023-03-20T16:27:39;2.70;;;2.60;;
2313;SDS011;42279;51.388;7.000;2023-03-20T16:30:07;2.60;;;2.50;;
2313;SDS011;42279;51.388;7.000;2023-03-20T16:32:35;7.17;;;2.70;;
2313;SDS011;42279;51.388;7.000;2023-03-20T16:35:46;7.80;;;3.30;;
2313;SDS011;42279;51.388;7.000;2023-03-20T16:37:55;3.60;;;3.43;;
2313;SDS011;42279;51.388;7.000;2023-03-20T16:40:31;6.83;;;3.00;;
2313;SDS011;42279;51.388;7.000;2023-03-20T16:43:31;4.97;;;3.50;;
2313;SDS011;42279;51.388;7.000;2023-03-20T16:45:53;3.23;;;2.43;;
2313;SDS011;42279;51.388;7.000;2023-03-20T16:48:23;4.60;;;2.40;;
2313;SDS011;42279;51.388;7.000;2023-03-20T16:50:53;3.77;;;3.43;;
2313;SDS011;42279;51.388;7.000;2023-03-20T16:53:20;13.00;;;3.40;;
2313;SDS011;42279;51.388;7.000;2023-03-20T16:55:48;4.07;;;2.20;;
2313;SDS011;42279;51.388;7.000;2023-03-20T16:58:16;6.47;;;4.00;;
2313;SDS011;42279;51.388;7.000;2023-03-20T17:00:45;8.13;;;3.43;;
2313;SDS011;42279;51.388;7.000;2023-03-20T17:03:18;3.60;;;3.03;;
2313;SDS011;42279;51.388;7.000;2023-03-20T17:05:56;6.40;;;3.50;;
2313;SDS011;42279;51.388;7.000;2023-03-20T17:08:27;4.77;;;4.30;;
2313;SDS011;42279;51.388;7.000;2023-03-20T17:10:58;7.27;;;3.73;;
2313;SDS011;42279;51.388;7.000;2023-03-20T17:13:24;6.70;;;3.47;;
2313;SDS011;42279;51.388;7.000;2023-03-20T17:15:51;6.53;;;3.63;;
2313;SDS011;42279;51.388;7.000;2023-03-20T17:18:17;6.53;;;3.83;;
2313;SDS011;42279;51.388;7.000;2023-03-20T17:20:46;4.77;;;3.30;;
2313;SDS011;42279;51.388;7.000;2023-03-20T17:23:19;6.73;;;4.33;;
2313;SDS011;42279;51.388;7.000;2023-03-20T17:25:45;6.07;;;4.37;;
2313;SDS011;42279;51.388;7.000;2023-03-20T17:28:15;6.70;;;3.77;;
2313;SDS011;42279;51.388;7.000;2023-03-20T17:30:42;5.57;;;3.90;;
2313;SDS011;42279;51.388;7.000;2023-03-20T17:33:14;4.77;;;3.87;;
2313;SDS011;42279;51.388;7.000;2023-03-20T17:35:42;5.50;;;4.60;;
2313;SDS011;42279;51.388;7.000;2023-03-20T17:38:13;3.87;;;3.43;;
2313;SDS011;42279;51.388;7.000;2023-03-20T17:40:40;5.80;;;5.00;;
2313;SDS011;42279;51.388;7.000;2023-03-20T17:43:10;4.90;;;3.73;;
2313;SDS011;42279;51.388;7.000;2023-03-20T17:45:36;3.63;;;3.20;;
2313;SDS011;42279;51.388;7.000;2023-03-20T17:48:03;6.93;;;4.90;;